sensor_id;sensor_type;location;lat;lon;timestamp;P1;durP1;ratioP1;P2;durP2;ratioP2
40044;SDS011;25735;48.122;11.422;2022-07-29T00:02:17;2.00;;;1.63;;
40044;SDS011;25735;48.122;11.422;2022-07-29T00:04:42;1.77;;;1.50;;
40044;SDS011;25735;48.122;11.422;2022-07-29T00:07:07;2.45;;;2.15;;
40044;SDS011;25735;48.122;11.422;2022-07-29T00:09:32;2.63;;;1.70;;
40044;SDS011;25735;48.122;11.422;2022-07-29T00:11:58;4.17;;;1.90;;
40044;SDS011;25735;48.122;11.422;2022-07-29T00:14:24;2.97;;;1.58;;
40044;SDS011;25735;48.122;11.422;2022-07-29T00:16:49;2.67;;;1.70;;
40044;SDS011;25735;48.122;11.422;2022-07-29T00:19:14;3.13;;;1.57;;
40044;SDS011;25735;48.122;11.422;2022-07-29T00:21:39;3.47;;;1.73;;
40044;SDS011;25735;48.122;11.422;2022-07-29T00:24:05;2.33;;;1.80;;
40044;SDS011;25735;48.122;11.422;2022-07-29T00:26:30;2.15;;;1.95;;
40044;SDS011;25735;48.122;11.422;2022-07-29T00:28:57;3.28;;;1.92;;
40044;SDS011;25735;48.122;11.422;2022-07-29T00:31:22;2.92;;;1.55;;
40044;SDS011;25735;48.122;11.422;2022-07-29T00:33:47;2.87;;;1.70;;
40044;SDS011;25735;48.122;11.422;2022-07-29T00:36:12;1.90;;;1.70;;
40044;SDS011;25735;48.122;11.422;2022-07-29T00:38:38;2.20;;;1.60;;
40044;SDS011;25735;48.122;11.422;2022-07-29T00:41:03;1.90;;;1.70;;
40044;SDS011;25735;48.122;11.422;2022-07-29T00:43:28;2.33;;;1.90;;
40044;SDS011;25735;48.122;11.422;2022-07-29T00:45:53;3.10;;;1.70;;
40044;SDS011;25735;48.122;11.422;2022-07-29T00:48:18;1.92;;;1.50;;
40044;SDS011;25735;48.122;11.422;2022-07-29T00:50:44;1.30;;;1.20;;
40044;SDS011;25735;48.122;11.422;2022-07-29T00:53:09;2.78;;;1.45;;
40044;SDS011;25735;48.122;11.422;2022-07-29T00:55:36;1.63;;;1.45;;
40044;SDS011;25735;48.122;11.422;2022-07-29T00:58:02;1.45;;;1.35;;
40044;SDS011;25735;48.122;11.422;2022-07-29T01:00:28;2.75;;;1.30;;
40044;SDS011;25735;48.122;11.422;2022-07-29T01:02:53;2.63;;;1.17;;
40044;SDS011;25735;48.122;11.422;2022-07-29T01:05:19;1.40;;;1.15;;
40044;SDS011;25735;48.122;11.422;2022-07-29T01:07:44;1.30;;;1.20;;
40044;SDS011;25735;48.122;11.422;2022-07-29T01:10:11;1.05;;;0.98;;
40044;SDS011;25735;48.122;11.422;2022-07-29T01:12:37;1.10;;;1.00;;
40044;SDS011;25735;48.122;11.422;2022-07-29T01:15:03;1.15;;;0.93;;
40044;SDS011;25735;48.122;11.422;2022-07-29T01:17:32;1.77;;;1.08;;
40044;SDS011;25735;48.122;11.422;2022-07-29T01:20:03;1.80;;;0.90;;
40044;SDS011;25735;48.122;11.422;2022-07-29T01:22:35;0.77;;;0.77;;
40044;SDS011;25735;48.122;11.422;2022-07-29T01:27:51;1.35;;;1.13;;
40044;SDS011;25735;48.122;11.422;2022-07-29T01:30:24;1.58;;;1.10;;
40044;SDS011;25735;48.122;11.422;2022-07-29T01:32:50;1.88;;;1.30;;
40044;SDS011;25735;48.122;11.422;2022-07-29T01:35:22;1.08;;;1.08;;
40044;SDS011;25735;48.122;11.422;2022-07-29T01:37:50;2.28;;;1.27;;
40044;SDS011;25735;48.122;11.422;2022-07-29T01:40:21;1.38;;;1.00;;
40044;SDS011;25735;48.122;11.422;2022-07-29T01:42:51;1.30;;;1.20;;
40044;SDS011;25735;48.122;11.422;2022-07-29T01:45:19;0.88;;;0.88;;
40044;SDS011;25735;48.122;11.422;2022-07-29T01:48:02;0.88;;;0.88;;
40044;SDS011;25735;48.122;11.422;2022-07-29T01:50:30;1.70;;;1.00;;
40044;SDS011;25735;48.122;11.422;2022-07-29T01:52:58;1.10;;;1.00;;
40044;SDS011;25735;48.122;11.422;2022-07-29T01:55:35;0.80;;;0.80;;
40044;SDS011;25735;48.122;11.422;2022-07-29T01:58:01;0.95;;;0.93;;
40044;SDS011;25735;48.122;11.422;2022-07-29T02:00:27;1.98;;;1.45;;
40044;SDS011;25735;48.122;11.422;2022-07-29T02:02:54;1.23;;;0.80;;
40044;SDS011;25735;48.122;11.422;2022-07-29T02:05:21;1.00;;;0.98;;
40044;SDS011;25735;48.122;11.422;2022-07-29T02:07:47;1.95;;;1.30;;
40044;SDS011;25735;48.122;11.422;2022-07-29T02:10:13;1.17;;;1.08;;
40044;SDS011;25735;48.122;11.422;2022-07-29T02:12:39;2.30;;;0.88;;
40044;SDS011;25735;48.122;11.422;2022-07-29T02:15:05;2.05;;;1.27;;
40044;SDS011;25735;48.122;11.422;2022-07-29T02:17:33;2.28;;;1.02;;
40044;SDS011;25735;48.122;11.422;2022-07-29T02:20:00;1.13;;;1.02;;
40044;SDS011;25735;48.122;11.422;2022-07-29T02:22:26;1.23;;;1.10;;
40044;SDS011;25735;48.122;11.422;2022-07-29T02:24:53;0.88;;;0.88;;
40044;SDS011;25735;48.122;11.422;2022-07-29T02:27:19;1.23;;;1.13;;
40044;SDS011;25735;48.122;11.422;2022-07-29T02:29:45;1.40;;;1.30;;
40044;SDS011;25735;48.122;11.422;2022-07-29T02:32:10;1.02;;;1.00;;
40044;SDS011;25735;48.122;11.422;2022-07-29T02:34:38;0.70;;;0.70;;
40044;SDS011;25735;48.122;11.422;2022-07-29T02:37:03;2.05;;;1.10;;
40044;SDS011;25735;48.122;11.422;2022-07-29T02:39:29;1.38;;;1.20;;
40044;SDS011;25735;48.122;11.422;2022-07-29T02:41:55;1.42;;;1.33;;
40044;SDS011;25735;48.122;11.422;2022-07-29T02:44:23;1.30;;;1.20;;
40044;SDS011;25735;48.122;11.422;2022-07-29T02:52:35;0.88;;;0.88;;
40044;SDS011;25735;48.122;11.422;2022-07-29T02:55:02;1.98;;;1.17;;
40044;SDS011;25735;48.122;11.422;2022-07-29T02:57:33;0.90;;;0.90;;
40044;SDS011;25735;48.122;11.422;2022-07-29T03:00:01;0.88;;;0.82;;
40044;SDS011;25735;48.122;11.422;2022-07-29T03:02:29;1.40;;;0.98;;
40044;SDS011;25735;48.122;11.422;2022-07-29T03:04:56;1.60;;;0.98;;
40044;SDS011;25735;48.122;11.422;2022-07-29T03:07:22;1.20;;;1.05;;
40044;SDS011;25735;48.122;11.422;2022-07-29T03:09:47;1.25;;;1.15;;
40044;SDS011;25735;48.122;11.422;2022-07-29T03:12:13;2.42;;;1.13;;
40044;SDS011;25735;48.122;11.422;2022-07-29T03:14:39;1.45;;;1.35;;
40044;SDS011;25735;48.122;11.422;2022-07-29T03:17:04;2.30;;;1.30;;
40044;SDS011;25735;48.122;11.422;2022-07-29T03:19:30;0.90;;;0.90;;
40044;SDS011;25735;48.122;11.422;2022-07-29T03:21:56;0.63;;;0.57;;
40044;SDS011;25735;48.122;11.422;2022-07-29T03:24:25;1.00;;;0.90;;
40044;SDS011;25735;48.122;11.422;2022-07-29T03:26:50;0.80;;;0.80;;
40044;SDS011;25735;48.122;11.422;2022-07-29T03:29:16;0.93;;;0.93;;
40044;SDS011;25735;48.122;11.422;2022-07-29T03:31:41;1.00;;;0.90;;
40044;SDS011;25735;48.122;11.422;2022-07-29T03:34:06;1.27;;;1.00;;
40044;SDS011;25735;48.122;11.422;2022-07-29T03:36:31;1.02;;;0.90;;
40044;SDS011;25735;48.122;11.422;2022-07-29T03:38:56;1.03;;;0.90;;
40044;SDS011;25735;48.122;11.422;2022-07-29T03:41:21;1.13;;;0.80;;
40044;SDS011;25735;48.122;11.422;2022-07-29T03:43:47;2.92;;;0.80;;
40044;SDS011;25735;48.122;11.422;2022-07-29T03:46:14;0.75;;;0.75;;
40044;SDS011;25735;48.122;11.422;2022-07-29T03:48:42;1.45;;;1.10;;
40044;SDS011;25735;48.122;11.422;2022-07-29T03:51:07;1.10;;;0.80;;
40044;SDS011;25735;48.122;11.422;2022-07-29T03:53:33;1.00;;;0.88;;
40044;SDS011;25735;48.122;11.422;2022-07-29T03:56:00;0.93;;;0.82;;
40044;SDS011;25735;48.122;11.422;2022-07-29T03:58:27;0.80;;;0.80;;
40044;SDS011;25735;48.122;11.422;2022-07-29T04:00:52;1.00;;;0.90;;
40044;SDS011;25735;48.122;11.422;2022-07-29T04:03:18;1.10;;;1.00;;
40044;SDS011;25735;48.122;11.422;2022-07-29T04:05:43;0.70;;;0.70;;
40044;SDS011;25735;48.122;11.422;2022-07-29T04:08:09;1.03;;;0.90;;
40044;SDS011;25735;48.122;11.422;2022-07-29T04:10:34;1.33;;;1.23;;
40044;SDS011;25735;48.122;11.422;2022-07-29T04:12:59;0.90;;;0.90;;
40044;SDS011;25735;48.122;11.422;2022-07-29T04:15:24;0.90;;;0.90;;
40044;SDS011;25735;48.122;11.422;2022-07-29T04:17:50;1.42;;;1.00;;
40044;SDS011;25735;48.122;11.422;2022-07-29T04:20:15;0.93;;;0.93;;
40044;SDS011;25735;48.122;11.422;2022-07-29T04:22:40;2.45;;;1.15;;
40044;SDS011;25735;48.122;11.422;2022-07-29T04:25:06;1.33;;;1.23;;
40044;SDS011;25735;48.122;11.422;2022-07-29T04:27:31;2.05;;;0.95;;
40044;SDS011;25735;48.122;11.422;2022-07-29T04:29:56;0.90;;;0.90;;
40044;SDS011;25735;48.122;11.422;2022-07-29T04:32:22;2.33;;;0.93;;
40044;SDS011;25735;48.122;11.422;2022-07-29T04:34:47;2.42;;;1.27;;
40044;SDS011;25735;48.122;11.422;2022-07-29T04:37:12;1.35;;;1.20;;
40044;SDS011;25735;48.122;11.422;2022-07-29T04:39:37;1.37;;;1.13;;
40044;SDS011;25735;48.122;11.422;2022-07-29T04:42:03;1.85;;;0.95;;
40044;SDS011;25735;48.122;11.422;2022-07-29T04:44:28;1.27;;;1.17;;
40044;SDS011;25735;48.122;11.422;2022-07-29T04:46:53;2.22;;;1.27;;
40044;SDS011;25735;48.122;11.422;2022-07-29T04:49:18;1.20;;;1.10;;
40044;SDS011;25735;48.122;11.422;2022-07-29T04:51:43;1.27;;;1.07;;
40044;SDS011;25735;48.122;11.422;2022-07-29T04:54:09;1.03;;;0.93;;
40044;SDS011;25735;48.122;11.422;2022-07-29T04:56:34;2.90;;;1.20;;
40044;SDS011;25735;48.122;11.422;2022-07-29T04:58:59;1.13;;;1.03;;
40044;SDS011;25735;48.122;11.422;2022-07-29T05:01:24;2.67;;;1.43;;
40044;SDS011;25735;48.122;11.422;2022-07-29T05:03:49;2.17;;;1.37;;
40044;SDS011;25735;48.122;11.422;2022-07-29T05:06:14;2.97;;;1.13;;
40044;SDS011;25735;48.122;11.422;2022-07-29T05:08:40;2.00;;;1.63;;
40044;SDS011;25735;48.122;11.422;2022-07-29T05:11:05;1.10;;;1.00;;
40044;SDS011;25735;48.122;11.422;2022-07-29T05:13:30;1.20;;;1.13;;
40044;SDS011;25735;48.122;11.422;2022-07-29T05:15:55;3.00;;;1.10;;
40044;SDS011;25735;48.122;11.422;2022-07-29T05:18:23;1.98;;;1.13;;
40044;SDS011;25735;48.122;11.422;2022-07-29T05:20:48;1.40;;;1.30;;
40044;SDS011;25735;48.122;11.422;2022-07-29T05:23:13;2.03;;;1.20;;
40044;SDS011;25735;48.122;11.422;2022-07-29T05:25:39;3.47;;;1.60;;
40044;SDS011;25735;48.122;11.422;2022-07-29T05:28:04;3.53;;;1.65;;
40044;SDS011;25735;48.122;11.422;2022-07-29T05:30:29;2.10;;;1.00;;
40044;SDS011;25735;48.122;11.422;2022-07-29T05:32:55;1.77;;;1.13;;
40044;SDS011;25735;48.122;11.422;2022-07-29T05:35:20;1.57;;;1.40;;
40044;SDS011;25735;48.122;11.422;2022-07-29T05:37:45;3.47;;;1.20;;
40044;SDS011;25735;48.122;11.422;2022-07-29T05:40:10;1.55;;;1.30;;
40044;SDS011;25735;48.122;11.422;2022-07-29T05:42:36;3.72;;;1.25;;
40044;SDS011;25735;48.122;11.422;2022-07-29T05:45:01;3.73;;;1.17;;
40044;SDS011;25735;48.122;11.422;2022-07-29T05:47:27;1.38;;;1.27;;
40044;SDS011;25735;48.122;11.422;2022-07-29T05:49:52;1.10;;;1.00;;
40044;SDS011;25735;48.122;11.422;2022-07-29T05:52:17;1.23;;;1.13;;
40044;SDS011;25735;48.122;11.422;2022-07-29T05:54:42;1.30;;;1.13;;
40044;SDS011;25735;48.122;11.422;2022-07-29T05:57:08;1.47;;;1.37;;
40044;SDS011;25735;48.122;11.422;2022-07-29T05:59:37;1.23;;;1.13;;
40044;SDS011;25735;48.122;11.422;2022-07-29T06:02:02;1.65;;;1.55;;
40044;SDS011;25735;48.122;11.422;2022-07-29T06:04:29;1.55;;;1.00;;
40044;SDS011;25735;48.122;11.422;2022-07-29T06:06:55;1.20;;;1.10;;
40044;SDS011;25735;48.122;11.422;2022-07-29T06:09:20;1.00;;;1.00;;
40044;SDS011;25735;48.122;11.422;2022-07-29T06:11:45;1.30;;;1.17;;
40044;SDS011;25735;48.122;11.422;2022-07-29T06:14:10;1.17;;;1.03;;
40044;SDS011;25735;48.122;11.422;2022-07-29T06:16:35;1.30;;;1.20;;
40044;SDS011;25735;48.122;11.422;2022-07-29T06:19:01;1.13;;;1.03;;
40044;SDS011;25735;48.122;11.422;2022-07-29T06:21:26;1.73;;;1.07;;
40044;SDS011;25735;48.122;11.422;2022-07-29T06:23:51;1.98;;;1.30;;
40044;SDS011;25735;48.122;11.422;2022-07-29T06:26:16;1.13;;;1.07;;
40044;SDS011;25735;48.122;11.422;2022-07-29T06:28:41;1.10;;;1.10;;
40044;SDS011;25735;48.122;11.422;2022-07-29T06:31:06;1.00;;;0.90;;
40044;SDS011;25735;48.122;11.422;2022-07-29T06:33:32;1.05;;;0.90;;
40044;SDS011;25735;48.122;11.422;2022-07-29T06:35:58;1.48;;;1.13;;
40044;SDS011;25735;48.122;11.422;2022-07-29T06:38:23;1.93;;;1.10;;
40044;SDS011;25735;48.122;11.422;2022-07-29T06:40:48;1.47;;;1.37;;
40044;SDS011;25735;48.122;11.422;2022-07-29T06:46:03;1.17;;;1.00;;
40044;SDS011;25735;48.122;11.422;2022-07-29T06:48:28;1.73;;;1.08;;
40044;SDS011;25735;48.122;11.422;2022-07-29T06:50:54;1.95;;;0.85;;
40044;SDS011;25735;48.122;11.422;2022-07-29T06:53:19;2.40;;;1.13;;
40044;SDS011;25735;48.122;11.422;2022-07-29T06:55:44;1.17;;;1.10;;
40044;SDS011;25735;48.122;11.422;2022-07-29T06:58:09;1.25;;;1.15;;
40044;SDS011;25735;48.122;11.422;2022-07-29T07:00:35;1.58;;;1.48;;
40044;SDS011;25735;48.122;11.422;2022-07-29T07:03:00;1.67;;;1.10;;
40044;SDS011;25735;48.122;11.422;2022-07-29T07:05:26;0.93;;;0.90;;
40044;SDS011;25735;48.122;11.422;2022-07-29T07:07:51;3.33;;;1.00;;
40044;SDS011;25735;48.122;11.422;2022-07-29T07:10:16;0.80;;;0.80;;
40044;SDS011;25735;48.122;11.422;2022-07-29T07:12:41;2.07;;;1.00;;
40044;SDS011;25735;48.122;11.422;2022-07-29T07:15:06;0.98;;;0.95;;
40044;SDS011;25735;48.122;11.422;2022-07-29T07:17:32;1.92;;;1.00;;
40044;SDS011;25735;48.122;11.422;2022-07-29T07:19:57;1.23;;;1.13;;
40044;SDS011;25735;48.122;11.422;2022-07-29T07:22:22;1.17;;;1.07;;
40044;SDS011;25735;48.122;11.422;2022-07-29T07:24:47;1.17;;;1.00;;
40044;SDS011;25735;48.122;11.422;2022-07-29T07:27:12;0.80;;;0.80;;
40044;SDS011;25735;48.122;11.422;2022-07-29T07:29:38;0.70;;;0.70;;
40044;SDS011;25735;48.122;11.422;2022-07-29T07:32:06;1.00;;;0.90;;
40044;SDS011;25735;48.122;11.422;2022-07-29T07:34:31;1.50;;;0.93;;
40044;SDS011;25735;48.122;11.422;2022-07-29T07:36:56;0.83;;;0.80;;
40044;SDS011;25735;48.122;11.422;2022-07-29T07:39:21;0.77;;;0.77;;
40044;SDS011;25735;48.122;11.422;2022-07-29T07:41:46;2.47;;;0.90;;
40044;SDS011;25735;48.122;11.422;2022-07-29T07:44:11;0.73;;;0.73;;
40044;SDS011;25735;48.122;11.422;2022-07-29T07:46:37;2.17;;;1.33;;
40044;SDS011;25735;48.122;11.422;2022-07-29T07:49:02;0.87;;;0.73;;
40044;SDS011;25735;48.122;11.422;2022-07-29T07:51:27;1.10;;;1.00;;
40044;SDS011;25735;48.122;11.422;2022-07-29T07:53:52;1.33;;;1.00;;
40044;SDS011;25735;48.122;11.422;2022-07-29T07:56:17;0.80;;;0.73;;
40044;SDS011;25735;48.122;11.422;2022-07-29T07:58:42;1.10;;;1.00;;
40044;SDS011;25735;48.122;11.422;2022-07-29T08:01:08;1.57;;;0.90;;
40044;SDS011;25735;48.122;11.422;2022-07-29T08:03:33;1.58;;;1.23;;
40044;SDS011;25735;48.122;11.422;2022-07-29T08:05:59;2.35;;;1.20;;
40044;SDS011;25735;48.122;11.422;2022-07-29T08:08:24;0.93;;;0.90;;
40044;SDS011;25735;48.122;11.422;2022-07-29T08:10:49;3.13;;;1.40;;
40044;SDS011;25735;48.122;11.422;2022-07-29T08:13:18;1.17;;;0.93;;
40044;SDS011;25735;48.122;11.422;2022-07-29T08:15:43;1.88;;;1.27;;
40044;SDS011;25735;48.122;11.422;2022-07-29T08:18:10;1.20;;;1.10;;
40044;SDS011;25735;48.122;11.422;2022-07-29T08:20:35;1.90;;;1.75;;
40044;SDS011;25735;48.122;11.422;2022-07-29T08:23:04;2.05;;;1.27;;
40044;SDS011;25735;48.122;11.422;2022-07-29T08:25:31;2.75;;;1.27;;
40044;SDS011;25735;48.122;11.422;2022-07-29T08:27:56;1.52;;;1.20;;
40044;SDS011;25735;48.122;11.422;2022-07-29T08:30:21;1.80;;;1.38;;
40044;SDS011;25735;48.122;11.422;2022-07-29T08:32:47;1.27;;;1.17;;
40044;SDS011;25735;48.122;11.422;2022-07-29T08:35:12;1.73;;;1.38;;
40044;SDS011;25735;48.122;11.422;2022-07-29T08:37:38;3.43;;;1.80;;
40044;SDS011;25735;48.122;11.422;2022-07-29T08:40:03;1.20;;;1.10;;
40044;SDS011;25735;48.122;11.422;2022-07-29T08:42:28;1.67;;;1.30;;
40044;SDS011;25735;48.122;11.422;2022-07-29T08:44:54;2.42;;;1.20;;
40044;SDS011;25735;48.122;11.422;2022-07-29T08:47:19;2.13;;;1.50;;
40044;SDS011;25735;48.122;11.422;2022-07-29T08:49:44;2.90;;;1.23;;
40044;SDS011;25735;48.122;11.422;2022-07-29T08:52:11;1.75;;;1.38;;
40044;SDS011;25735;48.122;11.422;2022-07-29T08:54:38;2.73;;;1.40;;
40044;SDS011;25735;48.122;11.422;2022-07-29T08:57:03;1.88;;;1.77;;
40044;SDS011;25735;48.122;11.422;2022-07-29T08:59:29;1.52;;;1.42;;
40044;SDS011;25735;48.122;11.422;2022-07-29T09:01:56;2.42;;;1.20;;
40044;SDS011;25735;48.122;11.422;2022-07-29T09:04:22;2.05;;;1.27;;
40044;SDS011;25735;48.122;11.422;2022-07-29T09:06:51;1.55;;;1.45;;
40044;SDS011;25735;48.122;11.422;2022-07-29T09:09:16;1.60;;;1.50;;
40044;SDS011;25735;48.122;11.422;2022-07-29T09:11:42;1.45;;;1.30;;
40044;SDS011;25735;48.122;11.422;2022-07-29T09:14:08;5.55;;;1.98;;
40044;SDS011;25735;48.122;11.422;2022-07-29T09:16:53;2.22;;;1.52;;
40044;SDS011;25735;48.122;11.422;2022-07-29T09:19:19;1.63;;;1.30;;
40044;SDS011;25735;48.122;11.422;2022-07-29T09:21:44;1.63;;;1.42;;
40044;SDS011;25735;48.122;11.422;2022-07-29T09:24:25;2.13;;;1.23;;
40044;SDS011;25735;48.122;11.422;2022-07-29T09:26:51;2.65;;;2.10;;
40044;SDS011;25735;48.122;11.422;2022-07-29T09:29:17;1.95;;;1.40;;
40044;SDS011;25735;48.122;11.422;2022-07-29T09:31:44;2.80;;;1.70;;
40044;SDS011;25735;48.122;11.422;2022-07-29T09:34:10;2.22;;;2.13;;
40044;SDS011;25735;48.122;11.422;2022-07-29T09:36:45;2.72;;;1.88;;
40044;SDS011;25735;48.122;11.422;2022-07-29T09:39:11;1.63;;;1.52;;
40044;SDS011;25735;48.122;11.422;2022-07-29T09:41:46;1.90;;;1.55;;
40044;SDS011;25735;48.122;11.422;2022-07-29T09:44:12;1.65;;;1.55;;
40044;SDS011;25735;48.122;11.422;2022-07-29T09:46:37;1.90;;;1.70;;
40044;SDS011;25735;48.122;11.422;2022-07-29T09:49:09;2.45;;;1.52;;
40044;SDS011;25735;48.122;11.422;2022-07-29T09:51:35;1.80;;;1.58;;
40044;SDS011;25735;48.122;11.422;2022-07-29T09:54:00;3.85;;;2.00;;
40044;SDS011;25735;48.122;11.422;2022-07-29T09:56:42;2.85;;;1.88;;
40044;SDS011;25735;48.122;11.422;2022-07-29T09:59:08;3.15;;;1.75;;
40044;SDS011;25735;48.122;11.422;2022-07-29T10:01:34;3.83;;;1.85;;
40044;SDS011;25735;48.122;11.422;2022-07-29T10:04:00;5.20;;;1.98;;
40044;SDS011;25735;48.122;11.422;2022-07-29T10:06:25;2.78;;;1.48;;
40044;SDS011;25735;48.122;11.422;2022-07-29T10:08:51;4.40;;;1.80;;
40044;SDS011;25735;48.122;11.422;2022-07-29T10:11:17;3.67;;;1.80;;
40044;SDS011;25735;48.122;11.422;2022-07-29T10:13:44;1.77;;;1.67;;
40044;SDS011;25735;48.122;11.422;2022-07-29T10:16:09;2.33;;;1.83;;
40044;SDS011;25735;48.122;11.422;2022-07-29T10:18:34;2.75;;;1.52;;
40044;SDS011;25735;48.122;11.422;2022-07-29T10:21:00;2.65;;;1.77;;
40044;SDS011;25735;48.122;11.422;2022-07-29T10:23:28;2.28;;;1.48;;
40044;SDS011;25735;48.122;11.422;2022-07-29T10:25:54;2.45;;;1.88;;
40044;SDS011;25735;48.122;11.422;2022-07-29T10:28:19;1.53;;;1.43;;
40044;SDS011;25735;48.122;11.422;2022-07-29T10:30:44;4.05;;;1.50;;
40044;SDS011;25735;48.122;11.422;2022-07-29T10:40:45;1.80;;;1.70;;
40044;SDS011;25735;48.122;11.422;2022-07-29T10:43:32;2.20;;;1.98;;
40044;SDS011;25735;48.122;11.422;2022-07-29T10:46:01;2.63;;;1.70;;
40044;SDS011;25735;48.122;11.422;2022-07-29T10:48:26;1.75;;;1.63;;
40044;SDS011;25735;48.122;11.422;2022-07-29T10:50:55;2.77;;;2.37;;
40044;SDS011;25735;48.122;11.422;2022-07-29T10:53:22;3.03;;;1.67;;
40044;SDS011;25735;48.122;11.422;2022-07-29T10:55:48;5.90;;;2.63;;
40044;SDS011;25735;48.122;11.422;2022-07-29T10:58:16;2.15;;;1.98;;
40044;SDS011;25735;48.122;11.422;2022-07-29T11:00:43;4.22;;;2.08;;
40044;SDS011;25735;48.122;11.422;2022-07-29T11:03:08;2.28;;;1.95;;
40044;SDS011;25735;48.122;11.422;2022-07-29T11:08:31;2.10;;;1.90;;
40044;SDS011;25735;48.122;11.422;2022-07-29T11:16:11;2.42;;;1.55;;
40044;SDS011;25735;48.122;11.422;2022-07-29T11:18:36;2.40;;;1.88;;
40044;SDS011;25735;48.122;11.422;2022-07-29T11:21:37;4.05;;;1.88;;
40044;SDS011;25735;48.122;11.422;2022-07-29T11:26:28;2.65;;;1.77;;
40044;SDS011;25735;48.122;11.422;2022-07-29T11:28:54;3.57;;;1.93;;
40044;SDS011;25735;48.122;11.422;2022-07-29T11:34:18;2.92;;;1.77;;
40044;SDS011;25735;48.122;11.422;2022-07-29T11:39:27;1.80;;;1.70;;
40044;SDS011;25735;48.122;11.422;2022-07-29T11:41:53;3.17;;;1.80;;
40044;SDS011;25735;48.122;11.422;2022-07-29T11:44:18;1.73;;;1.40;;
40044;SDS011;25735;48.122;11.422;2022-07-29T11:47:03;2.28;;;1.73;;
40044;SDS011;25735;48.122;11.422;2022-07-29T11:49:29;2.55;;;1.80;;
40044;SDS011;25735;48.122;11.422;2022-07-29T11:51:56;1.35;;;1.25;;
40044;SDS011;25735;48.122;11.422;2022-07-29T11:54:24;2.65;;;1.50;;
40044;SDS011;25735;48.122;11.422;2022-07-29T11:56:50;2.55;;;1.92;;
40044;SDS011;25735;48.122;11.422;2022-07-29T11:59:16;2.00;;;1.90;;
40044;SDS011;25735;48.122;11.422;2022-07-29T12:01:52;2.38;;;1.60;;
40044;SDS011;25735;48.122;11.422;2022-07-29T12:04:17;1.92;;;1.80;;
40044;SDS011;25735;48.122;11.422;2022-07-29T12:06:42;2.87;;;1.83;;
40044;SDS011;25735;48.122;11.422;2022-07-29T12:09:07;2.07;;;1.67;;
40044;SDS011;25735;48.122;11.422;2022-07-29T12:11:33;3.33;;;1.65;;
40044;SDS011;25735;48.122;11.422;2022-07-29T12:13:58;3.03;;;1.60;;
40044;SDS011;25735;48.122;11.422;2022-07-29T12:16:33;1.63;;;1.52;;
40044;SDS011;25735;48.122;11.422;2022-07-29T12:18:59;1.73;;;1.58;;
40044;SDS011;25735;48.122;11.422;2022-07-29T12:21:25;3.15;;;2.00;;
40044;SDS011;25735;48.122;11.422;2022-07-29T12:23:53;2.05;;;1.45;;
40044;SDS011;25735;48.122;11.422;2022-07-29T12:26:19;2.30;;;1.85;;
40044;SDS011;25735;48.122;11.422;2022-07-29T12:28:44;3.53;;;1.83;;
40044;SDS011;25735;48.122;11.422;2022-07-29T12:31:13;2.93;;;2.63;;
40044;SDS011;25735;48.122;11.422;2022-07-29T12:33:39;2.78;;;1.85;;
40044;SDS011;25735;48.122;11.422;2022-07-29T12:36:04;2.00;;;1.90;;
40044;SDS011;25735;48.122;11.422;2022-07-29T12:38:29;1.42;;;1.33;;
40044;SDS011;25735;48.122;11.422;2022-07-29T12:40:54;2.60;;;1.50;;
40044;SDS011;25735;48.122;11.422;2022-07-29T12:43:20;2.40;;;1.90;;
40044;SDS011;25735;48.122;11.422;2022-07-29T12:45:46;2.47;;;1.83;;
40044;SDS011;25735;48.122;11.422;2022-07-29T12:48:12;3.15;;;1.80;;
40044;SDS011;25735;48.122;11.422;2022-07-29T12:50:51;4.35;;;2.00;;
40044;SDS011;25735;48.122;11.422;2022-07-29T12:53:17;3.00;;;1.63;;
40044;SDS011;25735;48.122;11.422;2022-07-29T12:58:08;1.83;;;1.73;;
40044;SDS011;25735;48.122;11.422;2022-07-29T13:00:33;2.53;;;1.90;;
40044;SDS011;25735;48.122;11.422;2022-07-29T13:02:59;3.10;;;1.63;;
40044;SDS011;25735;48.122;11.422;2022-07-29T13:05:38;1.75;;;1.65;;
40044;SDS011;25735;48.122;11.422;2022-07-29T13:08:13;2.28;;;2.08;;
40044;SDS011;25735;48.122;11.422;2022-07-29T13:10:39;3.40;;;2.53;;
40044;SDS011;25735;48.122;11.422;2022-07-29T13:13:05;2.15;;;1.95;;
40044;SDS011;25735;48.122;11.422;2022-07-29T13:15:31;3.85;;;2.55;;
40044;SDS011;25735;48.122;11.422;2022-07-29T13:17:57;2.22;;;1.98;;
40044;SDS011;25735;48.122;11.422;2022-07-29T13:20:26;4.83;;;1.80;;
40044;SDS011;25735;48.122;11.422;2022-07-29T13:22:54;1.67;;;1.58;;
40044;SDS011;25735;48.122;11.422;2022-07-29T13:25:26;3.42;;;1.80;;
40044;SDS011;25735;48.122;11.422;2022-07-29T13:27:52;2.40;;;2.10;;
40044;SDS011;25735;48.122;11.422;2022-07-29T13:30:19;2.05;;;1.85;;
40044;SDS011;25735;48.122;11.422;2022-07-29T13:32:45;2.20;;;1.90;;
40044;SDS011;25735;48.122;11.422;2022-07-29T13:35:10;3.00;;;2.20;;
40044;SDS011;25735;48.122;11.422;2022-07-29T13:37:36;3.80;;;1.92;;
40044;SDS011;25735;48.122;11.422;2022-07-29T13:40:05;2.30;;;2.08;;
40044;SDS011;25735;48.122;11.422;2022-07-29T13:42:31;5.18;;;2.10;;
40044;SDS011;25735;48.122;11.422;2022-07-29T13:44:56;2.65;;;1.65;;
40044;SDS011;25735;48.122;11.422;2022-07-29T13:47:21;1.85;;;1.25;;
40044;SDS011;25735;48.122;11.422;2022-07-29T13:49:47;2.08;;;1.67;;
40044;SDS011;25735;48.122;11.422;2022-07-29T13:52:12;1.50;;;1.40;;
40044;SDS011;25735;48.122;11.422;2022-07-29T13:54:37;5.05;;;1.60;;
40044;SDS011;25735;48.122;11.422;2022-07-29T13:57:05;2.40;;;1.50;;
40044;SDS011;25735;48.122;11.422;2022-07-29T13:59:31;1.90;;;1.65;;
40044;SDS011;25735;48.122;11.422;2022-07-29T14:01:56;2.20;;;1.67;;
40044;SDS011;25735;48.122;11.422;2022-07-29T14:04:21;15.40;;;1.73;;
40044;SDS011;25735;48.122;11.422;2022-07-29T14:06:48;4.03;;;1.50;;
40044;SDS011;25735;48.122;11.422;2022-07-29T14:09:13;1.80;;;1.58;;
40044;SDS011;25735;48.122;11.422;2022-07-29T14:11:38;1.77;;;1.67;;
40044;SDS011;25735;48.122;11.422;2022-07-29T14:14:04;4.63;;;1.50;;
40044;SDS011;25735;48.122;11.422;2022-07-29T14:16:29;2.23;;;1.60;;
40044;SDS011;25735;48.122;11.422;2022-07-29T14:18:55;2.40;;;1.60;;
40044;SDS011;25735;48.122;11.422;2022-07-29T14:21:20;2.87;;;1.53;;
40044;SDS011;25735;48.122;11.422;2022-07-29T14:23:45;1.53;;;1.43;;
40044;SDS011;25735;48.122;11.422;2022-07-29T14:26:10;2.07;;;1.83;;
40044;SDS011;25735;48.122;11.422;2022-07-29T14:28:35;3.37;;;2.17;;
40044;SDS011;25735;48.122;11.422;2022-07-29T14:31:01;1.80;;;1.70;;
40044;SDS011;25735;48.122;11.422;2022-07-29T14:33:26;2.03;;;1.80;;
40044;SDS011;25735;48.122;11.422;2022-07-29T14:35:51;3.67;;;1.97;;
40044;SDS011;25735;48.122;11.422;2022-07-29T14:38:16;1.77;;;1.67;;
40044;SDS011;25735;48.122;11.422;2022-07-29T14:40:41;1.83;;;1.73;;
40044;SDS011;25735;48.122;11.422;2022-07-29T14:43:06;5.73;;;2.23;;
40044;SDS011;25735;48.122;11.422;2022-07-29T14:45:32;2.57;;;1.47;;
40044;SDS011;25735;48.122;11.422;2022-07-29T14:47:57;1.80;;;1.70;;
40044;SDS011;25735;48.122;11.422;2022-07-29T14:50:22;2.97;;;1.70;;
40044;SDS011;25735;48.122;11.422;2022-07-29T14:52:47;2.55;;;1.50;;
40044;SDS011;25735;48.122;11.422;2022-07-29T14:55:13;1.67;;;1.57;;
40044;SDS011;25735;48.122;11.422;2022-07-29T14:57:38;3.55;;;2.08;;
40044;SDS011;25735;48.122;11.422;2022-07-29T15:00:04;2.57;;;1.37;;
40044;SDS011;25735;48.122;11.422;2022-07-29T15:02:30;2.65;;;1.92;;
40044;SDS011;25735;48.122;11.422;2022-07-29T15:04:55;2.87;;;1.90;;
40044;SDS011;25735;48.122;11.422;2022-07-29T15:07:21;2.95;;;2.20;;